Terminal Aerodrome Forecast
Issued by NWS

Home | Current Version | Previous Version | Graphics & Text | Print | Product List | Glossary On
Versions: 1 2 3 4 5 6 7 8 9 10 11 12 13 14 15 16 17 18
359
FTUS43 KGRB 281134
TAFCWA
TAF
KCWA 281134Z 2812/2912 05009G15KT P6SM VCSH SCT005 OVC011
      TEMPO 2812/2816 5SM -RADZ BR BKN005
     FM281600 06006G15KT P6SM VCSH SCT010 BKN020
     FM282000 06007KT P6SM SCT015 BKN030
     FM290200 03003KT P6SM SCT030 BKN100=

USA.gov is the U.S. government's official web portal to all federal, state and local government web resources and services.